createdAt,value
2022-10-01T00:00:37.222Z,75
2022-10-01T00:01:40.117Z,75.1
2022-10-01T00:02:44.680Z,75.2
2022-10-01T00:03:47.538Z,75.5
2022-10-01T00:04:50.267Z,75.2
2022-10-01T00:05:54.398Z,75.3
2022-10-01T00:06:57.861Z,75.3
2022-10-01T00:08:01.499Z,75.3
2022-10-01T00:09:04.436Z,75.3
2022-10-01T00:10:07.424Z,75.3
2022-10-01T00:11:10.282Z,75.3
2022-10-01T00:12:13.562Z,75.3
2022-10-01T00:13:16.243Z,75.6
2022-10-01T00:14:18.785Z,75.3
2022-10-01T00:15:21.497Z,75.2
2022-10-01T00:16:24.399Z,75.2
2022-10-01T00:17:28.339Z,75.1
2022-10-01T00:18:31.582Z,75.3
2022-10-01T00:19:34.751Z,75.1
2022-10-01T00:20:37.334Z,75.2
2022-10-01T00:21:40.771Z,75.2
2022-10-01T00:22:44.427Z,75.3
2022-10-01T00:23:47.613Z,75.3
2022-10-01T00:24:49.932Z,75.3
2022-10-01T00:25:52.444Z,75.1
2022-10-01T00:26:54.879Z,75.1
2022-10-01T00:27:58.565Z,75.2
2022-10-01T00:29:01.618Z,75.1
2022-10-01T00:30:04.688Z,75.2
2022-10-01T00:31:08.209Z,74.9
2022-10-01T00:32:10.862Z,74.7
2022-10-01T00:33:13.530Z,74.9
2022-10-01T00:34:16.603Z,75.1
2022-10-01T00:35:19.490Z,75
2022-10-01T00:36:22.358Z,74.9
2022-10-01T00:37:25.638Z,75.4
2022-10-01T00:38:29.012Z,75.3
2022-10-01T00:39:32.110Z,75.3
2022-10-01T00:40:34.682Z,75.3
2022-10-01T00:41:38.978Z,75.4
2022-10-01T00:42:41.408Z,75.5
2022-10-01T00:43:44.770Z,75.2
2022-10-01T00:44:48.424Z,75.1
2022-10-01T00:45:51.557Z,75.2
2022-10-01T00:46:54.870Z,75.1
2022-10-01T00:47:57.579Z,75.1
2022-10-01T00:49:00.393Z,75.1
2022-10-01T00:50:03.767Z,75.1
2022-10-01T00:51:06.882Z,75.4
2022-10-01T00:52:09.596Z,75.4
2022-10-01T00:53:13.364Z,75
2022-10-01T00:54:16.160Z,75
2022-10-01T00:55:19.585Z,75
2022-10-01T00:56:23.012Z,75.2
2022-10-01T00:57:26.465Z,75.5
2022-10-01T00:58:29.536Z,75.6
2022-10-01T00:59:33.016Z,75.5
2022-10-01T01:00:36.006Z,75.6
2022-10-01T01:01:39.497Z,75.6
2022-10-01T01:02:43.023Z,75.5
2022-10-01T01:03:46.042Z,75.6
2022-10-01T01:04:48.552Z,75.8
2022-10-01T01:05:51.973Z,75.7
2022-10-01T01:06:54.490Z,75.8
2022-10-01T01:07:57.859Z,75.4
2022-10-01T01:09:01.435Z,75.5
2022-10-01T01:10:04.312Z,75.8
2022-10-01T01:11:07.942Z,75.8
2022-10-01T01:12:11.118Z,75.9
2022-10-01T01:13:14.112Z,75.6
2022-10-01T01:14:17.340Z,75.6
2022-10-01T01:15:20.712Z,75.6
2022-10-01T01:16:23.824Z,75.5
2022-10-01T01:17:27.508Z,75.5
2022-10-01T01:18:29.747Z,75.5
2022-10-01T01:19:32.337Z,75.7
2022-10-01T01:20:35.479Z,75.6
2022-10-01T01:21:38.922Z,75.5
2022-10-01T01:22:42.078Z,75.5
2022-10-01T01:23:45.413Z,75.3
2022-10-01T01:24:49.260Z,75.3
2022-10-01T01:25:52.737Z,75.4
2022-10-01T01:26:56.176Z,75.5
2022-10-01T01:27:59.970Z,75.5
2022-10-01T01:29:02.607Z,75.2
2022-10-01T01:30:05.525Z,75.5
2022-10-01T01:31:08.714Z,75.5
2022-10-01T01:32:16.136Z,75.6
2022-10-01T01:33:19.323Z,75.7
2022-10-01T01:34:22.103Z,75.9
2022-10-01T01:35:24.602Z,75.9
2022-10-01T01:36:27.457Z,76
2022-10-01T01:37:30.816Z,76
2022-10-01T01:38:33.887Z,75.9
2022-10-01T01:39:36.589Z,75.8
2022-10-01T01:40:40.510Z,75.9
2022-10-01T01:41:43.852Z,76.1
2022-10-01T01:42:47.372Z,76.1
2022-10-01T01:43:50.797Z,76
2022-10-01T01:44:53.786Z,76
2022-10-01T01:45:57.436Z,76.4
2022-10-01T01:47:01.015Z,76.5
2022-10-01T01:48:03.877Z,76.5
2022-10-01T01:49:06.387Z,76.4
2022-10-01T01:50:09.276Z,76.3
2022-10-01T01:51:12.620Z,76.4
2022-10-01T01:52:15.785Z,76.2
2022-10-01T01:53:18.223Z,76.5
2022-10-01T01:54:20.928Z,76.6
2022-10-01T01:55:23.727Z,76.5
2022-10-01T01:56:27.509Z,76.5
2022-10-01T01:57:30.594Z,76.5
2022-10-01T01:58:34.422Z,76.5
2022-10-01T01:59:37.213Z,76.6
2022-10-01T02:00:40.358Z,76.6
2022-10-01T02:01:43.624Z,76.5
2022-10-01T02:02:47.512Z,76.6
2022-10-01T02:03:50.592Z,76.6
2022-10-01T02:04:53.376Z,76.6
2022-10-01T02:05:56.543Z,76.5
2022-10-01T02:06:59.409Z,76.6
2022-10-01T02:08:02.200Z,76.5
2022-10-01T02:09:04.631Z,76.6
2022-10-01T02:10:07.693Z,76.9
2022-10-01T02:11:10.552Z,76.8
2022-10-01T02:12:13.988Z,76.7
2022-10-01T02:13:17.345Z,76.6
2022-10-01T02:14:20.795Z,76.2
2022-10-01T02:15:23.223Z,76.2
2022-10-01T02:16:26.873Z,76.2
2022-10-01T02:17:30.422Z,76.4
2022-10-01T02:18:33.603Z,76.3
2022-10-01T02:19:35.919Z,76.4
2022-10-01T02:20:39.630Z,76.4
2022-10-01T02:21:42.505Z,76.2
2022-10-01T02:22:45.578Z,76.5
2022-10-01T02:23:48.361Z,76.4
2022-10-01T02:24:51.339Z,76.4
2022-10-01T02:25:54.485Z,76.3
2022-10-01T02:26:57.911Z,76.6
2022-10-01T02:28:01.559Z,76.6
2022-10-01T02:29:04.943Z,76.6
2022-10-01T02:30:08.126Z,76.7
2022-10-01T02:31:10.910Z,76.7
2022-10-01T02:32:14.238Z,76.6
2022-10-01T02:33:16.821Z,76.6
2022-10-01T02:34:21.903Z,76.8
2022-10-01T02:35:24.494Z,76.8
2022-10-01T02:36:27.284Z,76.6
2022-10-01T02:37:29.954Z,76.8
2022-10-01T02:38:33.952Z,76.7
2022-10-01T02:39:36.940Z,76.6
2022-10-01T02:40:39.454Z,76.7
2022-10-01T02:41:42.695Z,76.6
2022-10-01T02:42:45.798Z,76.7
2022-10-01T02:43:49.032Z,76.6
2022-10-01T02:44:52.461Z,76.6
2022-10-01T02:45:56.238Z,76.5
2022-10-01T02:46:59.277Z,76.6
2022-10-01T02:48:01.590Z,76.6
2022-10-01T02:49:04.934Z,76.7
2022-10-01T02:50:08.019Z,76.8
2022-10-01T02:51:11.097Z,76.8
2022-10-01T02:52:14.357Z,76.7
2022-10-01T02:53:17.434Z,77.2
2022-10-01T02:54:20.051Z,77
2022-10-01T02:55:23.121Z,76.8
2022-10-01T02:56:25.352Z,76.8
2022-10-01T02:57:28.337Z,77
2022-10-01T02:58:31.326Z,76.6
2022-10-01T02:59:35.287Z,76.7
2022-10-01T03:00:38.368Z,76.7
2022-10-01T03:01:42.047Z,76.9
2022-10-01T03:02:45.559Z,77.1
2022-10-01T03:03:49.525Z,77.2
2022-10-01T03:04:52.127Z,77
2022-10-01T03:05:55.306Z,77.1
2022-10-01T03:06:58.448Z,77.1
2022-10-01T03:08:01.543Z,77
2022-10-01T03:09:04.889Z,77.1
2022-10-01T03:10:08.032Z,77.2
2022-10-01T03:11:11.482Z,77.2
2022-10-01T03:12:14.353Z,77
2022-10-01T03:13:17.252Z,77
2022-10-01T03:14:20.774Z,76.9
2022-10-01T03:15:24.212Z,76.6
2022-10-01T03:16:27.200Z,76.4
2022-10-01T03:17:30.861Z,76.4
2022-10-01T03:18:33.364Z,76.5
2022-10-01T03:19:36.493Z,76.6
2022-10-01T03:20:39.651Z,76.5
2022-10-01T03:21:43.112Z,76.3
2022-10-01T03:22:46.212Z,76.3
2022-10-01T03:23:49.286Z,76.1
2022-10-01T03:24:52.152Z,75.9
2022-10-01T03:25:55.567Z,75.9
2022-10-01T03:26:58.237Z,76.1
2022-10-01T03:28:01.675Z,76
2022-10-01T03:29:04.502Z,76.1
2022-10-01T03:30:07.939Z,76
2022-10-01T03:31:11.743Z,76.1
2022-10-01T03:32:14.937Z,76.2
2022-10-01T03:33:18.687Z,76
2022-10-01T03:34:22.193Z,76.1
2022-10-01T03:35:25.262Z,76
2022-10-01T03:36:27.415Z,76.2
2022-10-01T03:37:30.589Z,76.3
2022-10-01T03:38:33.651Z,76.3
2022-10-01T03:39:36.525Z,76.1
2022-10-01T03:40:39.238Z,76.2
2022-10-01T03:41:42.026Z,76.5
2022-10-01T03:42:45.497Z,76.6
2022-10-01T03:43:48.286Z,76.3
2022-10-01T03:44:51.737Z,76.3
2022-10-01T03:45:54.594Z,76.4
2022-10-01T03:46:58.001Z,76.5
2022-10-01T03:48:01.654Z,76.4
2022-10-01T03:49:04.277Z,76.3
2022-10-01T03:50:07.430Z,76.4
2022-10-01T03:51:10.729Z,76.3
2022-10-01T03:52:14.206Z,76.3
2022-10-01T03:53:17.380Z,76.6
2022-10-01T03:54:20.172Z,76.7
2022-10-01T03:55:23.241Z,76.5
2022-10-01T03:56:26.384Z,76.6
2022-10-01T03:57:29.255Z,76.9
2022-10-01T03:58:32.408Z,76.8
2022-10-01T03:59:35.472Z,76.8
2022-10-01T04:00:38.260Z,76.6
2022-10-01T04:01:42.201Z,76.7
2022-10-01T04:02:47.041Z,76.7
2022-10-01T04:03:50.765Z,77
2022-10-01T04:04:54.209Z,77.1
2022-10-01T04:05:56.806Z,76.8
2022-10-01T04:06:59.597Z,76.9
2022-10-01T04:08:02.392Z,77.1
2022-10-01T04:09:05.267Z,77.1
2022-10-01T04:10:07.888Z,77.1
2022-10-01T04:11:10.594Z,77.2
2022-10-01T04:12:14.317Z,77.4
2022-10-01T04:13:17.317Z,77.5
2022-10-01T04:14:20.835Z,77.6
2022-10-01T04:15:24.559Z,77.7
2022-10-01T04:16:27.971Z,77.7
2022-10-01T04:17:30.830Z,77.6
2022-10-01T04:18:34.284Z,77.2
2022-10-01T04:19:37.462Z,77.3
2022-10-01T04:20:41.198Z,77.2
2022-10-01T04:21:43.244Z,77.3
2022-10-01T04:22:46.119Z,77.2
2022-10-01T04:23:49.453Z,77.3
2022-10-01T04:24:52.903Z,77.2
2022-10-01T04:25:55.334Z,77.2
2022-10-01T04:26:58.549Z,77
2022-10-01T04:28:02.196Z,76.9
2022-10-01T04:29:05.123Z,77.1
2022-10-01T04:30:07.923Z,77
2022-10-01T04:31:11.545Z,76.9
2022-10-01T04:32:14.543Z,76.9
2022-10-01T04:33:17.309Z,76.8
2022-10-01T04:34:20.807Z,76.8
2022-10-01T04:35:24.452Z,77
2022-10-01T04:36:27.412Z,76.8
2022-10-01T04:37:30.483Z,76.8
2022-10-01T04:38:33.270Z,76.4
2022-10-01T04:39:35.994Z,76.7
2022-10-01T04:40:38.717Z,76.4
2022-10-01T04:41:41.620Z,76.4
2022-10-01T04:42:44.147Z,76.5
2022-10-01T04:43:47.672Z,76.6
2022-10-01T04:44:51.375Z,76.7
2022-10-01T04:45:54.181Z,76.6
2022-10-01T04:46:57.191Z,76.7
2022-10-01T04:48:00.331Z,76.5
2022-10-01T04:49:03.855Z,76.4
2022-10-01T04:50:07.093Z,76.4
2022-10-01T04:51:10.610Z,76.4
2022-10-01T04:52:14.673Z,76.5
2022-10-01T04:53:17.107Z,76.6
2022-10-01T04:54:19.895Z,76.7
2022-10-01T04:55:22.678Z,76.6
2022-10-01T04:56:25.626Z,76.6
2022-10-01T04:57:28.690Z,76.6
2022-10-01T04:58:31.283Z,76.5
2022-10-01T04:59:34.633Z,76.6
2022-10-01T05:00:38.375Z,76.4
2022-10-01T05:01:42.630Z,76.6
2022-10-01T05:02:46.019Z,76.6
2022-10-01T05:03:48.451Z,76.6
2022-10-01T05:04:51.243Z,76.3
2022-10-01T05:05:54.730Z,76.5
2022-10-01T05:06:58.753Z,76.5
2022-10-01T05:08:02.228Z,76.6
2022-10-01T05:09:04.935Z,76.6
2022-10-01T05:10:08.104Z,76.6
2022-10-01T05:11:10.621Z,76.4
2022-10-01T05:12:13.512Z,76.4
2022-10-01T05:13:16.383Z,76.5
2022-10-01T05:14:19.657Z,76.4
2022-10-01T05:15:23.091Z,76.5
2022-10-01T05:16:26.250Z,76.5
2022-10-01T05:17:29.783Z,76.3
2022-10-01T05:18:32.934Z,76.2
2022-10-01T05:19:35.733Z,76.3
2022-10-01T05:20:38.325Z,76.4
2022-10-01T05:21:42.042Z,76.5
2022-10-01T05:22:44.922Z,76.3
2022-10-01T05:23:47.635Z,76.2
2022-10-01T05:24:50.527Z,76.1
2022-10-01T05:25:53.675Z,76.2
2022-10-01T05:26:56.189Z,76
2022-10-01T05:27:59.243Z,75.9
2022-10-01T05:29:02.525Z,76.1
2022-10-01T05:30:05.624Z,76.1
2022-10-01T05:31:09.205Z,76.1
2022-10-01T05:32:12.526Z,75.8
2022-10-01T05:33:15.786Z,75.4
2022-10-01T05:34:18.976Z,75.3
2022-10-01T05:35:22.116Z,75.4
2022-10-01T05:36:24.622Z,75.3
2022-10-01T05:37:28.472Z,75.2
2022-10-01T05:38:31.360Z,75.1
2022-10-01T05:39:34.546Z,74.9
2022-10-01T05:40:37.230Z,74.8
2022-10-01T05:41:40.015Z,74.7
2022-10-01T05:42:42.902Z,74.8
2022-10-01T05:43:46.542Z,74.7
2022-10-01T05:44:49.332Z,74.8
2022-10-01T05:45:52.599Z,75
2022-10-01T05:46:55.734Z,75
2022-10-01T05:47:59.203Z,75
2022-10-01T05:49:02.344Z,74.8
2022-10-01T05:50:05.141Z,74.6
2022-10-01T05:51:08.202Z,74.9
2022-10-01T05:52:11.650Z,74.8
2022-10-01T05:53:15.778Z,75.2
2022-10-01T05:54:18.844Z,75.6
2022-10-01T05:55:22.701Z,75.5
2022-10-01T05:56:26.160Z,75.9
2022-10-01T05:57:28.866Z,76.3
2022-10-01T05:58:32.299Z,76.3
2022-10-01T05:59:35.678Z,76
2022-10-01T06:00:38.514Z,76.6
2022-10-01T06:01:42.078Z,77.4
2022-10-01T06:02:45.839Z,78
2022-10-01T06:03:49.509Z,78
2022-10-01T06:04:51.901Z,78.5
2022-10-01T06:05:55.910Z,78.7
2022-10-01T06:06:58.715Z,78.6
2022-10-01T06:08:01.681Z,78.6
2022-10-01T06:09:04.834Z,79.8
2022-10-01T06:10:08.063Z,79.9
2022-10-01T06:11:11.150Z,80.2
2022-10-01T06:12:20.850Z,80.4
2022-10-01T06:13:23.840Z,80.8
2022-10-01T06:14:26.635Z,80.2
2022-10-01T06:15:30.198Z,80.7
2022-10-01T06:16:33.909Z,80.9
2022-10-01T06:17:37.383Z,81.1
2022-10-01T06:18:40.375Z,80.9
2022-10-01T06:19:44.169Z,81.4
2022-10-01T06:20:46.677Z,81.5
2022-10-01T06:21:50.045Z,81.7
2022-10-01T06:22:52.762Z,81.9
2022-10-01T06:23:55.612Z,81.9
2022-10-01T06:24:59.375Z,81.9
2022-10-01T06:26:02.753Z,81.8
2022-10-01T06:27:05.570Z,82.1
2022-10-01T06:28:08.905Z,82.2
2022-10-01T06:29:12.465Z,82.4
2022-10-01T06:30:15.064Z,82.2
2022-10-01T06:31:18.702Z,82.6
2022-10-01T06:32:21.377Z,82.9
2022-10-01T06:33:23.860Z,82.9
2022-10-01T06:34:25.906Z,83.1
2022-10-01T06:35:28.697Z,83.1
2022-10-01T06:36:32.419Z,82.6
2022-10-01T06:37:35.287Z,83
2022-10-01T06:38:38.344Z,83
2022-10-01T06:39:41.406Z,83
2022-10-01T06:40:45.241Z,82.8
2022-10-01T06:41:47.768Z,82.9
2022-10-01T06:42:57.834Z,83.5
2022-10-01T06:44:00.826Z,83.4
2022-10-01T06:45:03.978Z,83
2022-10-01T06:46:07.373Z,83.2
2022-10-01T06:47:11.263Z,83.2
2022-10-01T06:48:14.256Z,83
2022-10-01T06:49:17.147Z,83.1
2022-10-01T06:50:19.759Z,83.1
2022-10-01T06:51:23.212Z,83.7
2022-10-01T06:52:25.639Z,84
2022-10-01T06:53:29.014Z,83.6
2022-10-01T06:54:32.161Z,83.5
2022-10-01T06:55:35.588Z,83.6
2022-10-01T06:56:39.270Z,83.7
2022-10-01T06:57:43.019Z,83.5
2022-10-01T06:58:46.482Z,83.5
2022-10-01T06:59:49.904Z,84
2022-10-01T07:00:52.676Z,84.1
2022-10-01T07:01:57.606Z,84.2
2022-10-01T07:03:00.551Z,84.8
2022-10-01T07:04:03.523Z,84.5
2022-10-01T07:05:06.609Z,84.3
2022-10-01T07:06:09.599Z,84.2
2022-10-01T07:07:11.762Z,84.3
2022-10-01T07:08:14.295Z,84.4
2022-10-01T07:09:17.525Z,84.4
2022-10-01T07:10:21.217Z,84.2
2022-10-01T07:11:24.492Z,84
2022-10-01T07:12:28.017Z,84.3
2022-10-01T07:13:30.820Z,84.4
2022-10-01T07:14:34.051Z,84.5
2022-10-01T07:15:37.049Z,84.8
2022-10-01T07:16:40.757Z,85
2022-10-01T07:17:44.736Z,85.2
2022-10-01T07:18:48.101Z,84.9
2022-10-01T07:19:50.530Z,85.5
2022-10-01T07:20:53.898Z,84.9
2022-10-01T07:21:56.971Z,85.2
2022-10-01T07:22:59.680Z,85.3
2022-10-01T07:24:03.401Z,85.6
2022-10-01T07:25:06.820Z,85.6
2022-10-01T07:26:09.911Z,85.5
2022-10-01T07:27:12.981Z,85.4
2022-10-01T07:28:17.186Z,85.2
2022-10-01T07:29:21.275Z,85.1
2022-10-01T07:30:24.627Z,84.9
2022-10-01T07:31:27.418Z,84.7
2022-10-01T07:32:30.724Z,84.6
2022-10-01T07:33:33.510Z,85.2
2022-10-01T07:34:36.388Z,85.3
2022-10-01T07:35:38.605Z,85.2
2022-10-01T07:36:41.947Z,85.2
2022-10-01T07:37:44.310Z,85.7
2022-10-01T07:38:47.738Z,85.6
2022-10-01T07:39:51.192Z,86.1
2022-10-01T07:40:55.334Z,86.1
2022-10-01T07:41:58.499Z,86.4
2022-10-01T07:43:01.141Z,86.6
2022-10-01T07:44:04.899Z,86.8
2022-10-01T07:45:08.146Z,86.8
2022-10-01T07:46:11.767Z,86.8
2022-10-01T07:47:14.936Z,87
2022-10-01T07:48:18.038Z,87.2
2022-10-01T07:49:20.912Z,87.1
2022-10-01T07:50:24.490Z,87.2
2022-10-01T07:51:27.744Z,87.3
2022-10-01T07:52:30.551Z,87.5
2022-10-01T07:53:33.617Z,87.8
2022-10-01T07:54:36.613Z,87.8
2022-10-01T07:55:39.284Z,87.9
2022-10-01T07:56:42.991Z,87.8
2022-10-01T07:57:45.885Z,88
2022-10-01T07:58:48.954Z,88.2
2022-10-01T07:59:57.055Z,87.5
2022-10-01T08:01:00.585Z,87.8
2022-10-01T08:02:04.830Z,87.9
2022-10-01T08:03:07.625Z,87.7
2022-10-01T08:04:10.686Z,87.6
2022-10-01T08:05:14.210Z,87.3
2022-10-01T08:06:18.992Z,87.4
2022-10-01T08:07:28.146Z,87.4
2022-10-01T08:08:31.593Z,87.4
2022-10-01T08:09:35.301Z,87.4
2022-10-01T08:10:38.078Z,87.4
2022-10-01T08:11:40.233Z,87
2022-10-01T08:12:43.025Z,86.8
2022-10-01T08:13:46.089Z,87.3
2022-10-01T08:14:49.081Z,87.8
2022-10-01T08:15:52.314Z,87.9
2022-10-01T08:16:56.017Z,87.8
2022-10-01T08:17:59.025Z,87.9
2022-10-01T08:19:02.092Z,87.8
2022-10-01T08:20:05.561Z,88.1
2022-10-01T08:21:08.110Z,87.9
2022-10-01T08:22:11.402Z,88
2022-10-01T08:23:14.779Z,87.9
2022-10-01T08:24:17.344Z,87.9
2022-10-01T08:25:20.136Z,87.9
2022-10-01T08:26:22.925Z,88
2022-10-01T08:27:26.012Z,88.1
2022-10-01T08:28:29.200Z,88.3
2022-10-01T08:29:32.939Z,88.3
2022-10-01T08:30:35.469Z,88.6
2022-10-01T08:31:39.567Z,88.5
2022-10-01T08:32:42.233Z,88.2
2022-10-01T08:33:45.477Z,88.5
2022-10-01T08:34:50.441Z,88.5
2022-10-01T08:35:59.861Z,88.2
2022-10-01T08:37:03.282Z,87.7
2022-10-01T08:38:06.475Z,87.8
2022-10-01T08:39:09.943Z,88.2
2022-10-01T08:40:13.209Z,88.5
2022-10-01T08:41:17.537Z,88.7
2022-10-01T08:42:26.329Z,88.6
2022-10-01T08:43:29.117Z,88.5
2022-10-01T08:44:31.909Z,88.3
2022-10-01T08:45:35.261Z,88.3
2022-10-01T08:46:38.204Z,88.3
2022-10-01T08:47:41.717Z,88.3
2022-10-01T08:48:44.872Z,88.4
2022-10-01T08:49:48.712Z,88.3
2022-10-01T08:50:51.495Z,88.6
2022-10-01T08:51:53.934Z,88.7
2022-10-01T08:52:56.839Z,88.9
2022-10-01T08:54:00.588Z,88.7
2022-10-01T08:55:03.391Z,88.6
2022-10-01T08:56:06.840Z,88.9
2022-10-01T08:57:10.141Z,88.9
2022-10-01T08:58:12.570Z,89
2022-10-01T08:59:15.705Z,89
2022-10-01T09:00:19.202Z,88.8
2022-10-01T09:01:22.391Z,89.1
2022-10-01T09:02:25.381Z,89.3
2022-10-01T09:03:28.905Z,89.2
2022-10-01T09:04:32.610Z,89.5
2022-10-01T09:05:36.216Z,89.6
2022-10-01T09:06:39.426Z,89.6
2022-10-01T09:07:43.154Z,89.7
2022-10-01T09:08:46.224Z,89.9
2022-10-01T09:09:49.229Z,90
2022-10-01T09:10:52.384Z,90
2022-10-01T09:11:55.175Z,90.1
2022-10-01T09:12:58.246Z,90.1
2022-10-01T09:14:01.973Z,90.2
2022-10-01T09:15:04.849Z,90.1
2022-10-01T09:16:08.660Z,90.2
2022-10-01T09:17:12.033Z,90.4
2022-10-01T09:18:15.012Z,90.1
2022-10-01T09:19:18.268Z,90.3
2022-10-01T09:20:21.073Z,90.1
2022-10-01T09:21:24.533Z,90.2
2022-10-01T09:22:27.706Z,90.5
2022-10-01T09:23:30.577Z,90.4
2022-10-01T09:24:33.517Z,90.6
2022-10-01T09:25:36.677Z,90.3
2022-10-01T09:26:39.752Z,90.4
2022-10-01T09:27:43.167Z,90.3
2022-10-01T09:28:45.931Z,90.3
2022-10-01T09:29:49.087Z,90.4
2022-10-01T09:30:51.601Z,90.6
2022-10-01T09:31:53.945Z,90.5
2022-10-01T09:32:57.237Z,90.4
2022-10-01T09:34:00.035Z,90.4
2022-10-01T09:35:06.168Z,90.7
2022-10-01T09:36:09.810Z,90.8
2022-10-01T09:37:13.316Z,90.8
2022-10-01T09:38:17.035Z,91
2022-10-01T09:39:19.828Z,90.7
2022-10-01T09:40:22.532Z,90.7
2022-10-01T09:41:25.063Z,90.6
2022-10-01T09:42:29.135Z,90.5
2022-10-01T09:43:32.473Z,90.5
2022-10-01T09:44:34.998Z,90.2
2022-10-01T09:45:38.183Z,90
2022-10-01T09:46:41.430Z,90
2022-10-01T09:47:44.220Z,90.3
2022-10-01T09:48:47.013Z,90.3
2022-10-01T09:49:49.539Z,90.4
2022-10-01T09:50:53.111Z,90.5
2022-10-01T09:51:55.973Z,90.3
2022-10-01T09:52:59.699Z,90.1
2022-10-01T09:54:03.073Z,89.9
2022-10-01T09:55:05.507Z,90
2022-10-01T09:56:08.935Z,90.1
2022-10-01T09:57:11.745Z,90.2
2022-10-01T09:58:15.184Z,90.5
2022-10-01T09:59:18.110Z,90.5
2022-10-01T10:00:20.811Z,90.2
2022-10-01T10:01:23.382Z,90.3
2022-10-01T10:02:26.407Z,90.5
2022-10-01T10:03:29.815Z,90.3
2022-10-01T10:04:33.813Z,90.4
2022-10-01T10:05:36.884Z,90.2
2022-10-01T10:06:40.836Z,90.3
2022-10-01T10:07:44.484Z,90.4
2022-10-01T10:08:47.308Z,90.5
2022-10-01T10:09:50.779Z,90.5
2022-10-01T10:10:54.311Z,90.6
2022-10-01T10:11:57.196Z,90.2
2022-10-01T10:13:00.956Z,90.7
2022-10-01T10:14:03.245Z,90.6
2022-10-01T10:15:06.588Z,90.1
2022-10-01T10:16:10.357Z,90.1
2022-10-01T10:17:14.059Z,90
2022-10-01T10:18:25.026Z,89.9
2022-10-01T10:19:28.976Z,90.4
2022-10-01T10:20:32.057Z,90.4
2022-10-01T10:21:35.498Z,90.5
2022-10-01T10:22:38.945Z,90.5
2022-10-01T10:23:41.954Z,90.3
2022-10-01T10:24:45.146Z,90.5
2022-10-01T10:25:48.301Z,90.6
2022-10-01T10:26:51.537Z,90.6
2022-10-01T10:27:54.830Z,90.4
2022-10-01T10:28:59.039Z,90.3
2022-10-01T10:30:02.041Z,90.2
2022-10-01T10:31:05.012Z,90.4
2022-10-01T10:32:07.966Z,90.6
2022-10-01T10:33:11.035Z,90.7
2022-10-01T10:34:14.255Z,90.6
2022-10-01T10:35:16.692Z,90.5
2022-10-01T10:36:20.347Z,89.9
2022-10-01T10:37:23.226Z,90.4
2022-10-01T10:38:26.189Z,90.7
2022-10-01T10:39:29.330Z,90.5
2022-10-01T10:40:32.822Z,90.6
2022-10-01T10:41:37.994Z,90.6
2022-10-01T10:42:41.621Z,90.6
2022-10-01T10:43:44.097Z,90.7
2022-10-01T10:44:47.343Z,90.9
2022-10-01T10:45:50.722Z,90.8
2022-10-01T10:46:53.944Z,90.8
2022-10-01T10:47:57.550Z,90.7
2022-10-01T10:49:00.963Z,90.8
2022-10-01T10:50:04.092Z,90.9
2022-10-01T10:51:06.695Z,91.1
2022-10-01T10:52:09.120Z,91.2
2022-10-01T10:53:12.457Z,91.4
2022-10-01T10:54:15.988Z,91.7
2022-10-01T10:55:19.288Z,91.7
2022-10-01T10:56:23.539Z,91.9
2022-10-01T10:57:26.914Z,92
2022-10-01T10:58:30.223Z,91.8
2022-10-01T10:59:33.041Z,91.7
2022-10-01T11:00:36.725Z,91.6
2022-10-01T11:01:40.389Z,91.6
2022-10-01T11:02:43.968Z,91.6
2022-10-01T11:03:47.547Z,91.4
2022-10-01T11:04:50.774Z,91.5
2022-10-01T11:05:54.226Z,91.6
2022-10-01T11:06:57.604Z,91.6
2022-10-01T11:07:59.850Z,91.8
2022-10-01T11:09:02.918Z,91.9
2022-10-01T11:10:06.715Z,91.5
2022-10-01T11:11:09.890Z,91.5
2022-10-01T11:12:13.535Z,91.7
2022-10-01T11:13:16.808Z,91.8
2022-10-01T11:14:24.522Z,91.7
2022-10-01T11:15:27.873Z,91.6
2022-10-01T11:16:31.156Z,91.7
2022-10-01T11:17:34.921Z,91.9
2022-10-01T11:18:37.917Z,91.8
2022-10-01T11:19:41.363Z,91.8
2022-10-01T11:20:44.423Z,92
2022-10-01T11:21:47.794Z,91.8
2022-10-01T11:22:51.064Z,91.7
2022-10-01T11:23:54.791Z,91.7
2022-10-01T11:24:58.138Z,92
2022-10-01T11:26:01.369Z,91.8
2022-10-01T11:27:04.730Z,91.7
2022-10-01T11:28:08.376Z,91.8
2022-10-01T11:29:11.541Z,91.9
2022-10-01T11:30:13.976Z,91.8
2022-10-01T11:31:17.163Z,91.8
2022-10-01T11:32:20.986Z,91.8
2022-10-01T11:33:23.697Z,91.8
2022-10-01T11:34:26.577Z,91.9
2022-10-01T11:35:29.756Z,92.1
2022-10-01T11:36:33.982Z,92
2022-10-01T11:37:37.667Z,91.8
2022-10-01T11:38:40.099Z,91.9
2022-10-01T11:39:42.900Z,92.1
2022-10-01T11:40:45.616Z,92.1
2022-10-01T11:41:49.480Z,92.2
2022-10-01T11:42:51.950Z,92.3
2022-10-01T11:43:55.114Z,92.1
2022-10-01T11:45:01.536Z,92
2022-10-01T11:46:05.060Z,92.1
2022-10-01T11:47:07.887Z,92.4
2022-10-01T11:48:10.998Z,92.4
2022-10-01T11:49:13.797Z,92.5
2022-10-01T11:50:16.586Z,92.6
2022-10-01T11:51:19.656Z,92.5
2022-10-01T11:52:22.200Z,92.3
2022-10-01T11:53:25.622Z,92.4
2022-10-01T11:54:28.692Z,92.6
2022-10-01T11:55:32.174Z,92.4
2022-10-01T11:56:36.474Z,92.2
2022-10-01T11:57:40.754Z,92.3
2022-10-01T11:58:43.297Z,92.4
2022-10-01T11:59:46.961Z,92.5
2022-10-01T12:00:49.749Z,92.2
2022-10-01T12:01:52.447Z,92.3
2022-10-01T12:02:56.106Z,92.5
2022-10-01T12:03:59.065Z,92.3
2022-10-01T12:05:01.786Z,92.5
2022-10-01T12:06:05.242Z,92.5
2022-10-01T12:07:07.682Z,92.3
2022-10-01T12:08:10.815Z,92.2
2022-10-01T12:09:14.172Z,92.2
2022-10-01T12:10:17.515Z,92.2
2022-10-01T12:11:20.028Z,92.1
2022-10-01T12:12:23.096Z,92
2022-10-01T12:13:27.281Z,92.1
2022-10-01T12:14:30.011Z,92.2
2022-10-01T12:15:32.837Z,92.3
2022-10-01T12:16:37.615Z,92.2
2022-10-01T12:17:41.598Z,92.4
2022-10-01T12:18:45.315Z,92.3
2022-10-01T12:19:47.878Z,92.7
2022-10-01T12:20:51.035Z,92.7
2022-10-01T12:21:54.213Z,92.5
2022-10-01T12:22:57.331Z,92.3
2022-10-01T12:24:00.707Z,92.1
2022-10-01T12:25:04.477Z,91.9
2022-10-01T12:26:07.634Z,91.8
2022-10-01T12:27:10.794Z,91.8
2022-10-01T12:28:14.040Z,91.9
2022-10-01T12:29:17.804Z,92
2022-10-01T12:30:21.597Z,92.1
2022-10-01T12:31:24.724Z,92
2022-10-01T12:32:28.039Z,91.5
2022-10-01T12:33:31.462Z,91.4
2022-10-01T12:34:33.992Z,91.4
2022-10-01T12:35:37.192Z,91.2
2022-10-01T12:36:41.003Z,91.5
2022-10-01T12:37:44.194Z,91.5
2022-10-01T12:38:46.929Z,91.3
2022-10-01T12:39:49.721Z,91.3
2022-10-01T12:40:52.896Z,91.8
2022-10-01T12:41:56.623Z,91.7
2022-10-01T12:43:05.286Z,91.5
2022-10-01T12:44:08.370Z,91.9
2022-10-01T12:45:11.877Z,92
2022-10-01T12:46:15.619Z,92
2022-10-01T12:47:19.148Z,91.8
2022-10-01T12:48:22.138Z,91.7
2022-10-01T12:49:25.513Z,91.6
2022-10-01T12:50:28.401Z,91.7
2022-10-01T12:51:31.136Z,91.5
2022-10-01T12:52:34.155Z,91.5
2022-10-01T12:53:37.851Z,91.5
2022-10-01T12:54:40.952Z,91.8
2022-10-01T12:55:43.737Z,91.6
2022-10-01T12:56:46.457Z,91.6
2022-10-01T12:57:49.797Z,91.2
2022-10-01T12:58:52.968Z,91.2
2022-10-01T12:59:56.144Z,91.2
2022-10-01T13:00:59.940Z,91.4
2022-10-01T13:02:03.659Z,91.5
2022-10-01T13:03:07.474Z,91.2
2022-10-01T13:04:10.461Z,91.1
2022-10-01T13:05:13.613Z,91.3
2022-10-01T13:06:16.876Z,91.1
2022-10-01T13:07:20.049Z,91.1
2022-10-01T13:08:23.192Z,90.9
2022-10-01T13:09:26.290Z,90.6
2022-10-01T13:10:29.820Z,90.1
2022-10-01T13:11:32.693Z,90
2022-10-01T13:12:35.683Z,89.8
2022-10-01T13:13:38.926Z,89.5
2022-10-01T13:14:41.800Z,89
2022-10-01T13:15:44.843Z,89.1
2022-10-01T13:16:49.240Z,88.9
2022-10-01T13:17:51.861Z,88.5
2022-10-01T13:18:55.404Z,88.3
2022-10-01T13:19:58.558Z,88.1
2022-10-01T13:21:01.234Z,87.6
2022-10-01T13:22:04.664Z,88.1
2022-10-01T13:23:07.771Z,88
2022-10-01T13:24:11.506Z,88.2
2022-10-01T13:25:14.306Z,88.2
2022-10-01T13:26:17.255Z,87.9
2022-10-01T13:27:20.678Z,88.3
2022-10-01T13:28:24.057Z,88.2
2022-10-01T13:29:27.137Z,88.4
2022-10-01T13:30:30.416Z,88.5
2022-10-01T13:31:33.649Z,88.4
2022-10-01T13:32:37.337Z,87.8
2022-10-01T13:33:41.082Z,87.7
2022-10-01T13:34:44.876Z,87.7
2022-10-01T13:35:47.858Z,87.4
2022-10-01T13:36:50.380Z,87.4
2022-10-01T13:37:53.376Z,86.9
2022-10-01T13:38:56.680Z,86.6
2022-10-01T13:39:59.499Z,86.3
2022-10-01T13:41:02.988Z,86.3
2022-10-01T13:42:05.699Z,87
2022-10-01T13:43:09.156Z,87.1
2022-10-01T13:44:12.305Z,86.8
2022-10-01T13:45:17.943Z,86
2022-10-01T13:46:21.970Z,86
2022-10-01T13:47:24.999Z,86
2022-10-01T13:48:28.444Z,85.8
2022-10-01T13:49:31.882Z,85.8
2022-10-01T13:50:35.328Z,85.6
2022-10-01T13:51:38.673Z,85.6
2022-10-01T13:52:41.808Z,85.9
2022-10-01T13:53:45.147Z,85.8
2022-10-01T13:54:47.535Z,86
2022-10-01T13:55:50.151Z,86.1
2022-10-01T13:56:52.589Z,86.3
2022-10-01T13:57:55.730Z,86.5
2022-10-01T13:58:58.049Z,86.6
2022-10-01T14:00:00.943Z,86.4
2022-10-01T14:01:04.373Z,86.9
2022-10-01T14:02:07.571Z,86.7
2022-10-01T14:03:11.312Z,86.6
2022-10-01T14:04:15.631Z,86.3
2022-10-01T14:05:18.451Z,86.6
2022-10-01T14:06:22.478Z,86.5
2022-10-01T14:07:25.921Z,86.4